createdAt,value
2022-08-05T00:06:06.653Z,22.77
2022-08-05T00:16:17.870Z,22.68
2022-08-05T00:26:43.371Z,22.65
2022-08-05T00:37:11.755Z,22.49
2022-08-05T00:47:18.778Z,22.38
2022-08-05T00:57:23.157Z,22.26
2022-08-05T01:07:31.763Z,21.92
2022-08-05T01:17:43.932Z,22.02
2022-08-05T01:28:05.906Z,22.04
2022-08-05T01:38:24.742Z,21.94
2022-08-05T01:48:33.232Z,21.77
2022-08-05T01:58:40.905Z,21.74
2022-08-05T02:08:58.393Z,21.54
2022-08-05T02:19:07.088Z,21.71
2022-08-05T02:29:21.501Z,21.53
2022-08-05T02:39:34.558Z,21.34
2022-08-05T02:49:42.829Z,21.34
2022-08-05T02:59:50.619Z,21.02
2022-08-05T03:09:57.424Z,20.93
2022-08-05T03:20:00.592Z,20.92
2022-08-05T03:30:09.100Z,20.82
2022-08-05T03:40:13.375Z,20.89
2022-08-05T03:50:20.195Z,20.83
2022-08-05T04:00:26.704Z,20.97
2022-08-05T04:10:37.649Z,20.93
2022-08-05T04:20:41.523Z,21.48
2022-08-05T04:30:46.378Z,22.48
2022-08-05T04:40:51.153Z,22.94
2022-08-05T04:51:03.405Z,23.16
2022-08-05T05:01:14.196Z,23.45
2022-08-05T05:11:41.614Z,23.57
2022-08-05T05:21:57.389Z,23.86
2022-08-05T05:32:12.460Z,24.30
2022-08-05T05:42:18.934Z,24.64
2022-08-05T05:52:28.539Z,25.12
2022-08-05T06:02:37.748Z,25.70
2022-08-05T06:12:42.722Z,26.45
2022-08-05T06:22:45.905Z,26.82
2022-08-05T06:32:50.972Z,27.50
2022-08-05T06:42:55.419Z,27.97
2022-08-05T06:53:03.955Z,28.55
2022-08-05T07:03:32.413Z,29.28
2022-08-05T07:13:57.989Z,29.63
2022-08-05T07:24:02.775Z,30.51
2022-08-05T07:34:08.399Z,31.29
2022-08-05T07:44:14.115Z,31.86
2022-08-05T07:54:30.603Z,32.04
2022-08-05T08:04:37.980Z,32.27
2022-08-05T08:14:46.693Z,33.08
2022-08-05T08:24:51.740Z,32.05
2022-08-05T08:34:56.612Z,33.73
2022-08-05T08:45:22.265Z,34.25
2022-08-05T08:56:01.952Z,34.39
2022-08-05T09:06:08.575Z,34.68
2022-08-05T09:16:14.531Z,34.41
2022-08-05T09:26:21.111Z,35.31
2022-08-05T09:36:55.157Z,35.69
2022-08-05T09:47:12.827Z,35.80
2022-08-05T09:57:39.685Z,35.24
2022-08-05T10:08:10.873Z,36.64
2022-08-05T10:18:16.856Z,36.77
2022-08-05T10:28:29.083Z,37.40
2022-08-05T10:38:35.955Z,37.64
2022-08-05T10:48:57.356Z,38.29
2022-08-05T11:00:01.220Z,38.61
2022-08-05T11:09:45.434Z,38.57
2022-08-05T11:20:16.670Z,37.14
2022-08-05T11:30:16.665Z,38.17
2022-08-05T11:40:21.336Z,38.53
2022-08-05T11:50:25.883Z,38.64
2022-08-05T12:00:31.920Z,39.27
2022-08-05T12:10:38.561Z,38.55
2022-08-05T12:20:50.236Z,39.45
2022-08-05T12:30:53.388Z,38.75
2022-08-05T12:41:00.566Z,38.69
2022-08-05T12:52:11.074Z,39.40
2022-08-05T13:02:00.690Z,39.85
2022-08-05T13:12:07.478Z,38.23
2022-08-05T13:22:28.155Z,39.93
2022-08-05T13:32:36.292Z,39.28
2022-08-05T13:42:46.941Z,39.62
2022-08-05T13:52:54.725Z,39.53
2022-08-05T14:03:01.011Z,39.10
2022-08-05T14:13:05.798Z,39.63
2022-08-05T14:23:10.830Z,39.03
2022-08-05T14:33:23.154Z,39.18
2022-08-05T14:44:02.486Z,38.34
2022-08-05T14:54:26.230Z,38.28
2022-08-05T15:04:16.428Z,37.69
2022-08-05T15:14:33.183Z,38.15
2022-08-05T15:24:40.729Z,38.50
2022-08-05T15:34:43.909Z,37.46
2022-08-05T15:44:48.450Z,37.54
2022-08-05T15:54:53.065Z,37.86
2022-08-05T16:04:57.760Z,37.60
2022-08-05T16:15:02.196Z,37.70
2022-08-05T16:25:10.205Z,37.15
2022-08-05T16:35:13.649Z,36.74
2022-08-05T16:46:08.137Z,36.83
2022-08-05T16:55:47.163Z,36.82
2022-08-05T17:05:54.308Z,36.46
2022-08-05T17:16:26.776Z,36.15
2022-08-05T17:26:28.113Z,35.74
2022-08-05T17:36:32.750Z,35.10
2022-08-05T17:46:41.915Z,34.15
2022-08-05T17:56:45.597Z,33.48
2022-08-05T18:06:55.859Z,32.83
2022-08-05T18:17:05.831Z,32.16
2022-08-05T18:27:30.482Z,31.47
2022-08-05T18:37:40.313Z,30.99
2022-08-05T18:47:50.149Z,30.36
2022-08-05T18:58:03.004Z,29.70
2022-08-05T19:08:13.633Z,29.56
2022-08-05T19:18:21.900Z,29.29
2022-08-05T19:28:27.204Z,29.04
2022-08-05T19:38:30.630Z,28.65
2022-08-05T19:48:37.114Z,28.37
2022-08-05T19:58:54.019Z,28.11
2022-08-05T20:09:06.223Z,27.83
2022-08-05T20:19:17.351Z,27.58
2022-08-05T20:29:27.606Z,27.24
2022-08-05T20:39:35.556Z,26.92
2022-08-05T20:49:41.444Z,26.60
2022-08-05T21:00:10.596Z,26.34
2022-08-05T21:10:13.847Z,26.13
2022-08-05T21:20:33.045Z,25.94
2022-08-05T21:30:38.599Z,25.66
2022-08-05T21:40:45.167Z,25.55
2022-08-05T21:50:53.064Z,25.31
2022-08-05T22:00:57.814Z,25.05
2022-08-05T22:11:02.454Z,24.84
2022-08-05T22:21:18.983Z,24.71
2022-08-05T22:31:24.281Z,24.48
2022-08-05T22:42:09.344Z,24.55
2022-08-05T22:52:04.612Z,24.34
2022-08-05T23:02:11.658Z,24.15
2022-08-05T23:12:17.919Z,24.08
2022-08-05T23:22:27.112Z,23.86
2022-08-05T23:32:32.424Z,23.67
2022-08-05T23:42:41.694Z,23.70
2022-08-05T23:52:54.608Z,23.40
